createdAt,value
2022-11-30T00:01:37.448Z,101598.79
2022-11-30T00:04:06.050Z,101602.92
2022-11-30T00:06:34.403Z,101603.63
2022-11-30T00:09:02.796Z,101600.12
2022-11-30T00:11:31.264Z,101603.05
2022-11-30T00:14:00.527Z,101605.05
2022-11-30T00:16:29.300Z,101604.34
2022-11-30T00:18:57.975Z,101602.75
2022-11-30T00:21:26.333Z,101603.13
2022-11-30T00:23:55.091Z,101603.09
2022-11-30T00:26:23.674Z,101603.65
2022-11-30T00:28:51.948Z,101599.04
2022-11-30T00:31:21.195Z,101597.37
2022-11-30T00:33:50.165Z,101600.16
2022-11-30T00:36:22.039Z,101602.50
2022-11-30T00:38:52.682Z,101602.15
2022-11-30T00:41:20.902Z,101603.58
2022-11-30T00:43:49.254Z,101603.02
2022-11-30T00:46:18.156Z,101602.10
2022-11-30T00:48:46.428Z,101606.05
2022-11-30T00:51:15.088Z,101604.77
2022-11-30T00:53:43.721Z,101600.69
2022-11-30T00:56:11.915Z,101601.98
2022-11-30T00:58:40.871Z,101601.77
2022-11-30T01:01:09.840Z,101602.16
2022-11-30T01:03:38.108Z,101602.74
2022-11-30T01:06:09.297Z,101603.55
2022-11-30T01:08:38.232Z,101606.77
2022-11-30T01:11:12.528Z,101602.06
2022-11-30T01:13:41.319Z,101605.87
2022-11-30T01:16:16.487Z,101608.60
2022-11-30T01:18:46.463Z,101608.98
2022-11-30T01:21:17.959Z,101608.08
2022-11-30T01:23:47.433Z,101611.17
2022-11-30T01:26:17.023Z,101610.66
2022-11-30T01:28:49.761Z,101614.48
2022-11-30T01:31:19.520Z,101610.06
2022-11-30T01:33:53.169Z,101610.80
2022-11-30T01:36:25.796Z,101611.15
2022-11-30T01:38:57.169Z,101609.96
2022-11-30T01:41:28.837Z,101613.40
2022-11-30T01:44:07.804Z,101609.65
2022-11-30T01:46:45.215Z,101606.42
2022-11-30T01:49:29.155Z,101605.71
2022-11-30T01:52:03.578Z,101606.24
2022-11-30T01:54:37.980Z,101604.24
2022-11-30T01:57:20.097Z,101603.93
2022-11-30T01:59:52.160Z,101604.99
2022-11-30T02:02:22.912Z,101602.47
2022-11-30T02:04:51.273Z,101601.61
2022-11-30T02:07:19.771Z,101602.29
2022-11-30T02:09:48.325Z,101596.50
2022-11-30T02:12:58.329Z,101603.24
2022-11-30T02:15:31.633Z,101602.46
2022-11-30T02:18:11.872Z,101601.23
2022-11-30T02:20:43.127Z,101603.30
2022-11-30T02:23:41.880Z,101601.15
2022-11-30T02:26:51.405Z,101604.80
2022-11-30T02:29:29.042Z,101602.31
2022-11-30T02:32:06.366Z,101604.23
2022-11-30T02:34:37.911Z,101609.38
2022-11-30T02:37:09.586Z,101606.96
2022-11-30T02:39:37.858Z,101609.08
2022-11-30T02:42:14.029Z,101609.74
2022-11-30T02:44:47.996Z,101611.30
2022-11-30T02:47:37.759Z,101614.69
2022-11-30T02:50:28.535Z,101613.60
2022-11-30T02:52:57.739Z,101614.47
2022-11-30T02:55:28.592Z,101616.20
2022-11-30T02:57:56.877Z,101613.88
2022-11-30T03:00:25.486Z,101612.43
2022-11-30T03:02:53.941Z,101610.98
2022-11-30T03:05:22.402Z,101606.50
2022-11-30T03:07:50.913Z,101609.86
2022-11-30T03:10:19.465Z,101608.21
2022-11-30T03:12:47.760Z,101610.11
2022-11-30T03:15:16.153Z,101609.15
2022-11-30T03:17:44.602Z,101611.62
2022-11-30T03:20:13.055Z,101612.42
2022-11-30T03:22:41.464Z,101616.12
2022-11-30T03:25:09.892Z,101615.60
2022-11-30T03:27:38.127Z,101618.20
2022-11-30T03:30:07.284Z,101622.34
2022-11-30T03:32:35.668Z,101628.77
2022-11-30T03:35:04.113Z,101632.45
2022-11-30T03:37:32.661Z,101633.28
2022-11-30T03:40:01.066Z,101634.59
2022-11-30T03:42:29.518Z,101642.21
2022-11-30T03:44:57.982Z,101643.05
2022-11-30T03:47:26.368Z,101648.30
2022-11-30T03:49:54.518Z,101651.99
2022-11-30T03:52:22.860Z,101658.64
2022-11-30T03:54:51.612Z,101656.55
2022-11-30T03:57:19.810Z,101657.64
2022-11-30T03:59:48.563Z,101662.13
2022-11-30T04:02:17.266Z,101664.39
2022-11-30T04:04:45.880Z,101665.70
2022-11-30T04:07:14.737Z,101663.63
2022-11-30T04:09:43.447Z,101665.10
2022-11-30T04:12:11.663Z,101663.19
2022-11-30T04:14:39.868Z,101662.23
2022-11-30T04:17:08.438Z,101657.09
2022-11-30T04:19:37.002Z,101653.29
2022-11-30T04:22:05.383Z,101654.58
2022-11-30T04:24:33.885Z,101652.94
2022-11-30T04:27:02.183Z,101655.00
2022-11-30T04:29:31.150Z,101658.17
2022-11-30T04:31:59.598Z,101658.23
2022-11-30T04:34:28.737Z,101658.46
2022-11-30T04:37:00.314Z,101658.85
2022-11-30T04:39:29.257Z,101659.70
2022-11-30T04:41:57.543Z,101658.70
2022-11-30T04:44:25.829Z,101658.10
2022-11-30T04:46:54.246Z,101657.44
2022-11-30T04:49:22.694Z,101660.54
2022-11-30T04:51:51.114Z,101662.13
2022-11-30T04:54:19.349Z,101665.81
2022-11-30T04:56:47.820Z,101667.02
2022-11-30T04:59:16.381Z,101662.06
2022-11-30T05:01:44.767Z,101662.62
2022-11-30T05:04:13.395Z,101666.02
2022-11-30T05:06:41.643Z,101663.95
2022-11-30T05:09:10.092Z,101666.77
2022-11-30T05:11:38.439Z,101672.41
2022-11-30T05:14:06.748Z,101669.54
2022-11-30T05:16:35.513Z,101672.69
2022-11-30T05:19:04.027Z,101673.86
2022-11-30T05:21:32.273Z,101675.23
2022-11-30T05:24:00.841Z,101676.09
2022-11-30T05:26:29.485Z,101678.92
2022-11-30T05:28:57.684Z,101681.50
2022-11-30T05:31:26.240Z,101680.98
2022-11-30T05:33:54.797Z,101678.48
2022-11-30T05:36:23.428Z,101680.97
2022-11-30T05:38:51.726Z,101681.15
2022-11-30T05:41:20.506Z,101681.20
2022-11-30T05:43:48.969Z,101685.17
2022-11-30T05:46:17.400Z,101687.98
2022-11-30T05:48:45.837Z,101690.00
2022-11-30T05:51:16.440Z,101691.38
2022-11-30T05:53:45.680Z,101696.77
2022-11-30T05:56:19.952Z,101698.94
2022-11-30T05:58:49.139Z,101700.81
2022-11-30T06:01:22.949Z,101702.05
2022-11-30T06:03:52.056Z,101703.94
2022-11-30T06:06:21.033Z,101707.25
2022-11-30T06:08:52.720Z,101706.11
2022-11-30T06:11:20.986Z,101705.14
2022-11-30T06:13:49.262Z,101706.14
2022-11-30T06:16:17.744Z,101710.15
2022-11-30T06:18:46.203Z,101708.26
2022-11-30T06:21:15.144Z,101710.10
2022-11-30T06:23:45.776Z,101714.40
2022-11-30T06:26:14.253Z,101715.77
2022-11-30T06:28:46.714Z,101716.17
2022-11-30T06:31:17.702Z,101719.70
2022-11-30T06:33:46.028Z,101722.21
2022-11-30T06:36:14.307Z,101720.80
2022-11-30T06:38:42.983Z,101719.36
2022-11-30T06:41:12.689Z,101721.14
2022-11-30T06:43:41.265Z,101724.41
2022-11-30T06:46:10.515Z,101727.64
2022-11-30T06:48:39.114Z,101729.16
2022-11-30T06:51:09.365Z,101729.33
2022-11-30T06:53:38.464Z,101733.16
2022-11-30T06:56:10.343Z,101734.14
2022-11-30T06:58:40.113Z,101739.11
2022-11-30T07:01:11.719Z,101742.42
2022-11-30T07:03:41.829Z,101745.38
2022-11-30T07:06:12.838Z,101743.81
2022-11-30T07:08:42.552Z,101743.81
2022-11-30T07:11:12.766Z,101742.40
2022-11-30T07:13:41.108Z,101748.25
2022-11-30T07:16:11.871Z,101746.95
2022-11-30T07:18:40.427Z,101748.71
2022-11-30T07:21:10.187Z,101752.19
2022-11-30T07:23:57.755Z,101755.86
2022-11-30T07:26:26.014Z,101759.27
2022-11-30T07:28:55.537Z,101763.36
2022-11-30T07:31:33.872Z,101763.64
2022-11-30T07:34:08.187Z,101766.58
2022-11-30T07:36:37.119Z,101767.59
2022-11-30T07:39:05.538Z,101767.39
2022-11-30T07:41:33.746Z,101770.00
2022-11-30T07:44:07.913Z,101768.80
2022-11-30T07:46:37.514Z,101770.56
2022-11-30T07:49:07.472Z,101770.70
2022-11-30T07:51:36.593Z,101767.91
2022-11-30T07:54:05.552Z,101765.91
2022-11-30T07:56:33.878Z,101765.00
2022-11-30T07:59:03.276Z,101770.41
2022-11-30T08:01:33.048Z,101768.77
2022-11-30T08:04:01.733Z,101768.25
2022-11-30T08:06:31.580Z,101769.65
2022-11-30T08:09:02.586Z,101771.54
2022-11-30T08:11:34.181Z,101773.19
2022-11-30T08:14:04.205Z,101770.40
2022-11-30T08:16:38.222Z,101769.63
2022-11-30T08:19:06.782Z,101768.96
2022-11-30T08:21:35.089Z,101768.71
2022-11-30T08:24:03.511Z,101769.25
2022-11-30T08:26:33.902Z,101772.98
2022-11-30T08:29:02.344Z,101775.27
2022-11-30T08:31:33.590Z,101775.31
2022-11-30T08:34:08.029Z,101776.08
2022-11-30T08:36:36.889Z,101775.76
2022-11-30T08:39:07.822Z,101781.15
2022-11-30T08:41:36.477Z,101785.78
2022-11-30T08:44:05.631Z,101786.61
2022-11-30T08:46:50.715Z,101790.14
2022-11-30T08:49:23.492Z,101793.16
2022-11-30T08:52:16.942Z,101791.14
2022-11-30T08:54:45.698Z,101793.46
2022-11-30T08:57:20.544Z,101798.98
2022-11-30T08:59:49.273Z,101802.73
2022-11-30T09:02:19.649Z,101803.80
2022-11-30T09:05:09.385Z,101803.69
2022-11-30T09:07:38.060Z,101806.25
2022-11-30T09:10:07.210Z,101806.16
2022-11-30T09:12:37.356Z,101809.53
2022-11-30T09:15:07.564Z,101810.38
2022-11-30T09:17:36.756Z,101810.80
2022-11-30T09:20:05.899Z,101810.41
2022-11-30T09:22:34.538Z,101810.31
2022-11-30T09:25:03.054Z,101807.23
2022-11-30T09:27:33.068Z,101806.10
2022-11-30T09:30:02.649Z,101804.52
2022-11-30T09:32:31.014Z,101807.58
2022-11-30T09:34:59.671Z,101808.90
2022-11-30T09:37:28.406Z,101806.69
2022-11-30T09:39:56.994Z,101806.02
2022-11-30T09:42:39.180Z,101803.33
2022-11-30T09:45:19.278Z,101807.52
2022-11-30T09:48:06.556Z,101806.73
2022-11-30T09:50:41.737Z,101807.29
2022-11-30T09:53:51.686Z,101805.26
2022-11-30T09:56:32.211Z,101801.88
2022-11-30T09:59:26.717Z,101802.34
2022-11-30T10:01:57.286Z,101803.34
2022-11-30T10:04:30.641Z,101801.23
2022-11-30T10:07:05.009Z,101798.84
2022-11-30T10:10:30.984Z,101794.78
2022-11-30T10:13:27.966Z,101793.98
2022-11-30T10:16:18.915Z,101795.96
2022-11-30T10:19:38.774Z,101793.17
2022-11-30T10:22:22.252Z,101794.14
2022-11-30T10:24:54.020Z,101792.86
2022-11-30T10:27:45.673Z,101790.55
2022-11-30T10:30:17.853Z,101787.70
2022-11-30T10:32:51.362Z,101790.31
2022-11-30T10:35:38.411Z,101790.30
2022-11-30T10:38:24.363Z,101787.55
2022-11-30T10:41:03.646Z,101789.86
2022-11-30T10:43:38.668Z,101790.10
2022-11-30T10:46:26.156Z,101789.59
2022-11-30T10:49:13.899Z,101793.27
2022-11-30T10:51:45.073Z,101795.71
2022-11-30T10:54:22.339Z,101796.73
2022-11-30T10:56:50.669Z,101798.48
2022-11-30T10:59:24.599Z,101798.80
2022-11-30T11:01:53.648Z,101796.80
2022-11-30T11:04:24.692Z,101796.08
2022-11-30T11:06:56.529Z,101798.77
2022-11-30T11:09:39.977Z,101799.70
2022-11-30T11:12:16.193Z,101801.17
2022-11-30T11:14:44.919Z,101802.73
2022-11-30T11:17:19.551Z,101798.06
2022-11-30T11:19:49.920Z,101799.30
2022-11-30T11:22:25.778Z,101793.62
2022-11-30T11:25:12.177Z,101797.77
2022-11-30T11:27:44.916Z,101798.05
2022-11-30T11:30:29.049Z,101799.67
2022-11-30T11:33:04.827Z,101795.92
2022-11-30T11:35:49.283Z,101793.02
2022-11-30T11:38:27.927Z,101794.52
2022-11-30T11:41:05.854Z,101795.99
2022-11-30T11:43:56.301Z,101796.16
2022-11-30T11:46:25.304Z,101798.85
2022-11-30T11:48:58.575Z,101800.45
2022-11-30T11:51:32.250Z,101799.58
2022-11-30T11:54:18.553Z,101799.35
2022-11-30T11:56:48.084Z,101804.27
2022-11-30T11:59:32.497Z,101807.63
2022-11-30T12:02:07.560Z,101805.44
2022-11-30T12:04:57.997Z,101803.64
2022-11-30T12:07:53.836Z,101809.98
2022-11-30T12:13:22.405Z,101812.00
2022-11-30T12:16:08.524Z,101811.97
2022-11-30T12:19:14.658Z,101814.82
2022-11-30T12:22:27.755Z,101813.01
2022-11-30T12:25:20.224Z,101813.41
2022-11-30T12:28:02.001Z,101813.13
2022-11-30T12:30:36.376Z,101813.21
2022-11-30T12:33:30.740Z,101814.23
2022-11-30T12:36:24.233Z,101815.14
2022-11-30T12:39:04.843Z,101814.89
2022-11-30T12:41:51.600Z,101811.50
2022-11-30T12:44:42.099Z,101811.00
2022-11-30T12:47:38.605Z,101813.17
2022-11-30T12:50:23.239Z,101815.19
2022-11-30T12:52:54.613Z,101815.82
2022-11-30T12:55:35.150Z,101820.17
2022-11-30T12:58:31.073Z,101818.64
2022-11-30T13:01:11.379Z,101819.22
2022-11-30T13:03:46.995Z,101819.17
2022-11-30T13:06:27.288Z,101822.78
2022-11-30T13:09:02.956Z,101823.02
2022-11-30T13:11:38.343Z,101825.05
2022-11-30T13:14:14.988Z,101822.10
2022-11-30T13:16:44.579Z,101819.94
2022-11-30T13:19:35.935Z,101821.79
2022-11-30T13:22:12.390Z,101825.00
2022-11-30T13:24:47.814Z,101824.20
2022-11-30T13:27:41.107Z,101823.01
2022-11-30T13:30:18.796Z,101823.08
2022-11-30T13:33:02.611Z,101822.05
2022-11-30T13:35:31.415Z,101820.29
2022-11-30T13:38:34.734Z,101821.52
2022-11-30T13:40:57.195Z,101826.25
2022-11-30T13:43:27.811Z,101828.22
2022-11-30T13:46:13.573Z,101831.48
2022-11-30T13:48:44.052Z,101833.35
2022-11-30T13:51:13.393Z,101830.33
2022-11-30T13:53:41.723Z,101834.88
2022-11-30T13:56:19.005Z,101832.83
2022-11-30T13:59:24.691Z,101833.77
2022-11-30T14:02:14.443Z,101835.30
2022-11-30T14:04:47.781Z,101837.69
2022-11-30T14:07:39.318Z,101833.05
2022-11-30T14:10:26.383Z,101836.00
2022-11-30T14:13:04.952Z,101837.89
2022-11-30T14:15:40.756Z,101839.59
2022-11-30T14:18:09.401Z,101844.69
2022-11-30T14:20:50.672Z,101845.99
2022-11-30T14:23:55.637Z,101847.60
2022-11-30T14:26:28.766Z,101848.75
2022-11-30T14:29:09.981Z,101848.64
2022-11-30T14:32:07.829Z,101845.01
2022-11-30T14:35:02.567Z,101848.21
2022-11-30T14:37:41.802Z,101846.22
2022-11-30T14:40:19.144Z,101849.52
2022-11-30T14:42:53.522Z,101848.94
2022-11-30T14:45:28.056Z,101845.71
2022-11-30T14:48:16.901Z,101846.75
2022-11-30T14:50:57.512Z,101848.02
2022-11-30T14:53:33.420Z,101847.18
2022-11-30T14:56:29.507Z,101847.75
2022-11-30T14:59:05.553Z,101847.38
2022-11-30T15:01:34.267Z,101846.00
2022-11-30T15:04:11.785Z,101848.41
2022-11-30T15:06:41.559Z,101848.16
2022-11-30T15:09:20.040Z,101851.34
2022-11-30T15:11:51.322Z,101853.61
2022-11-30T15:14:20.048Z,101857.66
2022-11-30T15:16:55.637Z,101858.34
2022-11-30T15:19:30.437Z,101858.81
2022-11-30T15:21:59.752Z,101860.07
2022-11-30T15:24:29.924Z,101861.45
2022-11-30T15:27:11.071Z,101858.06
2022-11-30T15:29:44.089Z,101856.61
2022-11-30T15:32:18.688Z,101857.70
2022-11-30T15:34:56.281Z,101858.80
2022-11-30T15:37:34.303Z,101855.66
2022-11-30T15:40:05.894Z,101855.86
2022-11-30T15:42:43.874Z,101860.18
2022-11-30T15:45:29.921Z,101858.88
2022-11-30T15:48:00.830Z,101857.45
2022-11-30T15:50:29.471Z,101855.63
2022-11-30T15:53:00.197Z,101857.71
2022-11-30T15:55:46.101Z,101856.89
2022-11-30T15:58:29.374Z,101858.74
2022-11-30T16:01:21.075Z,101861.30
2022-11-30T16:03:58.279Z,101861.31
2022-11-30T16:06:45.047Z,101864.10
2022-11-30T16:09:32.270Z,101864.10
2022-11-30T16:12:02.509Z,101865.59
2022-11-30T16:14:31.168Z,101865.73
2022-11-30T16:17:02.882Z,101867.02
2022-11-30T16:19:36.007Z,101869.64
2022-11-30T16:22:04.308Z,101869.92
2022-11-30T16:24:32.474Z,101872.39
2022-11-30T16:27:11.182Z,101868.70
2022-11-30T16:29:39.334Z,101871.42
2022-11-30T16:32:13.896Z,101870.18
2022-11-30T16:34:42.090Z,101876.73
2022-11-30T16:37:11.296Z,101873.75
2022-11-30T16:39:39.763Z,101872.17
2022-11-30T16:42:12.048Z,101878.86
2022-11-30T16:44:40.896Z,101878.07
2022-11-30T16:47:09.524Z,101871.50
2022-11-30T16:49:38.543Z,101873.52
2022-11-30T16:52:15.693Z,101874.24
2022-11-30T16:54:44.092Z,101878.69
2022-11-30T16:57:12.836Z,101882.52
2022-11-30T16:59:41.208Z,101883.71
2022-11-30T17:02:20.211Z,101886.52
2022-11-30T17:04:48.962Z,101886.64
2022-11-30T17:07:17.309Z,101889.91
2022-11-30T17:09:45.736Z,101890.47
2022-11-30T17:12:14.660Z,101891.85
2022-11-30T17:14:42.904Z,101892.70
2022-11-30T17:17:11.113Z,101897.10
2022-11-30T17:19:40.185Z,101895.52
2022-11-30T17:22:08.492Z,101893.79
2022-11-30T17:24:36.660Z,101894.20
2022-11-30T17:27:06.076Z,101894.68
2022-11-30T17:29:34.572Z,101897.88
2022-11-30T17:32:02.845Z,101897.33
2022-11-30T17:34:31.469Z,101896.30
2022-11-30T17:37:00.027Z,101895.55
2022-11-30T17:39:28.267Z,101894.61
2022-11-30T17:41:57.037Z,101893.40
2022-11-30T17:44:25.477Z,101893.64
2022-11-30T17:46:53.750Z,101899.67
2022-11-30T17:49:22.782Z,101899.05
2022-11-30T17:51:51.270Z,101902.29
2022-11-30T17:54:19.491Z,101906.77
2022-11-30T17:56:48.236Z,101906.98
2022-11-30T17:59:16.662Z,101913.32
2022-11-30T18:01:45.047Z,101915.27
2022-11-30T18:04:14.005Z,101919.36
2022-11-30T18:06:42.553Z,101920.44
2022-11-30T18:09:11.361Z,101920.34
2022-11-30T18:11:40.807Z,101921.13
2022-11-30T18:14:09.216Z,101923.77
2022-11-30T18:16:38.214Z,101919.41
2022-11-30T18:19:12.260Z,101920.97
2022-11-30T18:21:42.573Z,101921.88
2022-11-30T18:24:12.363Z,101922.67
2022-11-30T18:26:41.089Z,101922.44
2022-11-30T18:29:10.675Z,101923.92
2022-11-30T18:31:39.277Z,101922.40
2022-11-30T18:34:07.923Z,101924.36
2022-11-30T18:36:36.177Z,101922.58
2022-11-30T18:39:05.405Z,101925.99
2022-11-30T18:41:33.878Z,101930.98
2022-11-30T18:44:02.110Z,101929.92
2022-11-30T18:46:30.913Z,101928.42
2022-11-30T18:49:00.047Z,101928.55
2022-11-30T18:51:30.272Z,101930.09
2022-11-30T18:54:01.514Z,101933.05
2022-11-30T18:56:32.775Z,101931.27
2022-11-30T18:59:04.018Z,101932.66
2022-11-30T19:01:33.030Z,101931.13
2022-11-30T19:04:04.624Z,101931.09
2022-11-30T19:06:33.354Z,101935.41
2022-11-30T19:09:10.271Z,101935.34
2022-11-30T19:11:39.918Z,101938.03
2022-11-30T19:14:10.344Z,101936.34
2022-11-30T19:16:38.871Z,101937.90
2022-11-30T19:19:08.612Z,101940.41
2022-11-30T19:21:36.816Z,101943.30
2022-11-30T19:24:05.577Z,101944.30
2022-11-30T19:26:34.398Z,101944.77
2022-11-30T19:29:02.609Z,101945.09
2022-11-30T19:31:31.047Z,101946.34
2022-11-30T19:33:59.894Z,101943.48
2022-11-30T19:36:29.424Z,101942.77
2022-11-30T19:38:59.866Z,101941.36
2022-11-30T19:41:28.915Z,101944.06
2022-11-30T19:44:03.697Z,101944.74
2022-11-30T19:46:34.649Z,101949.72
2022-11-30T19:49:03.534Z,101950.59
2022-11-30T19:51:32.022Z,101949.32
2022-11-30T19:54:02.125Z,101947.03
2022-11-30T19:56:34.827Z,101946.30
2022-11-30T19:59:05.732Z,101948.16
2022-11-30T20:01:34.903Z,101951.75
2022-11-30T20:04:04.847Z,101951.91
2022-11-30T20:06:36.410Z,101955.64
2022-11-30T20:09:06.836Z,101955.56
2022-11-30T20:11:35.771Z,101959.08
2022-11-30T20:14:04.606Z,101961.38
2022-11-30T20:16:33.983Z,101960.45
2022-11-30T20:19:02.678Z,101963.16
2022-11-30T20:21:33.850Z,101969.27
2022-11-30T20:24:06.358Z,101968.29
2022-11-30T20:26:41.234Z,101971.15
2022-11-30T20:29:16.007Z,101969.39
2022-11-30T20:31:47.220Z,101970.52
2022-11-30T20:34:17.018Z,101968.92
2022-11-30T20:36:45.981Z,101968.85
2022-11-30T20:39:14.396Z,101970.32
2022-11-30T20:41:42.875Z,101972.95
2022-11-30T20:44:15.283Z,101976.13
2022-11-30T20:46:43.948Z,101974.78
2022-11-30T20:49:15.752Z,101968.30
2022-11-30T20:51:45.385Z,101966.95
2022-11-30T20:54:15.989Z,101965.51
2022-11-30T20:56:46.845Z,101969.60
2022-11-30T20:59:22.530Z,101968.27
2022-11-30T21:01:50.804Z,101966.77
2022-11-30T21:04:20.225Z,101967.00
2022-11-30T21:06:49.063Z,101968.74
2022-11-30T21:09:19.620Z,101970.13
2022-11-30T21:11:49.024Z,101972.27
2022-11-30T21:14:21.080Z,101981.30
2022-11-30T21:16:49.506Z,101977.70
2022-11-30T21:19:17.990Z,101977.76
2022-11-30T21:21:46.428Z,101976.98
2022-11-30T21:24:15.365Z,101977.84
2022-11-30T21:26:43.981Z,101973.48
2022-11-30T21:29:17.277Z,101979.10
2022-11-30T21:31:46.086Z,101980.05
2022-11-30T21:34:14.567Z,101980.48
2022-11-30T21:36:43.137Z,101977.06
2022-11-30T21:39:14.900Z,101976.98
2022-11-30T21:41:43.744Z,101974.92
2022-11-30T21:44:14.309Z,101975.96
2022-11-30T21:46:45.848Z,101976.40
2022-11-30T21:49:15.481Z,101978.11
2022-11-30T21:51:44.194Z,101976.92
2022-11-30T21:54:13.569Z,101971.77
2022-11-30T21:56:43.804Z,101974.14
2022-11-30T21:59:14.617Z,101973.14
2022-11-30T22:01:43.867Z,101975.08
2022-11-30T22:04:13.909Z,101978.19
2022-11-30T22:06:43.263Z,101975.84
2022-11-30T22:09:14.468Z,101976.05
2022-11-30T22:11:45.540Z,101972.90
2022-11-30T22:14:16.889Z,101974.11
2022-11-30T22:16:45.864Z,101970.33
2022-11-30T22:19:14.343Z,101970.67
2022-11-30T22:21:49.415Z,101966.75
2022-11-30T22:24:19.171Z,101961.23
2022-11-30T22:26:49.328Z,101964.89
2022-11-30T22:29:23.668Z,101967.73
2022-11-30T22:31:54.050Z,101963.88
2022-11-30T22:34:22.289Z,101962.84
2022-11-30T22:36:50.537Z,101961.48
2022-11-30T22:39:21.092Z,101961.66
2022-11-30T22:41:55.572Z,101962.19
2022-11-30T22:44:25.754Z,101959.06
2022-11-30T22:46:55.150Z,101957.98
2022-11-30T22:49:23.617Z,101960.02
2022-11-30T22:51:52.363Z,101960.54
2022-11-30T22:54:20.816Z,101961.02
2022-11-30T22:56:49.051Z,101958.44
2022-11-30T22:59:17.908Z,101958.48
2022-11-30T23:01:48.626Z,101955.27
2022-11-30T23:04:20.176Z,101952.38
2022-11-30T23:06:50.225Z,101951.37
2022-11-30T23:09:21.638Z,101950.68
2022-11-30T23:11:51.050Z,101948.86
2022-11-30T23:14:19.845Z,101947.70
2022-11-30T23:16:48.575Z,101943.63
2022-11-30T23:19:18.304Z,101942.80
2022-11-30T23:21:46.826Z,101947.48
2022-11-30T23:24:18.016Z,101945.36
2022-11-30T23:26:46.624Z,101942.95
2022-11-30T23:29:17.119Z,101942.46
2022-11-30T23:31:46.786Z,101941.98
2022-11-30T23:34:18.261Z,101944.92
2022-11-30T23:36:47.240Z,101944.98
2022-11-30T23:39:18.540Z,101949.53
2022-11-30T23:41:47.702Z,101948.73
2022-11-30T23:44:16.333Z,101951.30
2022-11-30T23:46:44.907Z,101949.33
2022-11-30T23:49:14.435Z,101945.75
2022-11-30T23:51:42.995Z,101946.90
2022-11-30T23:54:11.212Z,101946.77
2022-11-30T23:56:39.982Z,101946.23
2022-11-30T23:59:08.663Z,101944.30
